Time;durP1;ratioP1;P1;durP2;ratioP2;P2;SDS_P1;SDS_P2;PMS_P1;PMS_P2;Temp;Humidity;BMP_temperature;BMP_pressure;BME280_temperature;BME280_humidity;BME280_pressure;Samples;Min_cycle;Max_cycle;Signal;HPM_P1;HPM_P2
2021/12/08 00:00:36;;;;;;;1.00;1.00;;;;;;;;;;5090359;28;20305;-64
2021/12/08 00:03:25;;;;;;;1.20;1.10;;;;;;;;;;5106000;28;20227;-65
2021/12/08 00:06:12;;;;;;;1.20;1.10;;;;;;;;;;5106339;28;20209;-65
2021/12/08 00:09:04;;;;;;;1.00;1.00;;;;;;;;;;5113840;28;20202;-65
2021/12/08 00:14:58;;;;;;;1.13;1.13;;;;;;;;;;5093361;28;20681;-65
2021/12/08 00:17:45;;;;;;;0.90;0.90;;;;;;;;;;5092615;28;20234;-64
2021/12/08 00:20:33;;;;;;;1.10;1.10;;;;;;;;;;5093222;28;20309;-64
2021/12/08 00:23:21;;;;;;;1.13;1.00;;;;;;;;;;5093934;28;20223;-64
2021/12/08 00:26:09;;;;;;;1.03;1.03;;;;;;;;;;5092413;28;20285;-65
2021/12/08 00:28:56;;;;;;;1.30;1.30;;;;;;;;;;5092468;28;20233;-65
2021/12/08 00:31:46;;;;;;;1.17;1.07;;;;;;;;;;5083906;28;20563;-65
2021/12/08 00:34:33;;;;;;;0.90;0.90;;;;;;;;;;5094071;28;20230;-65
2021/12/08 00:37:20;;;;;;;1.40;1.30;;;;;;;;;;5092888;28;20254;-65
2021/12/08 00:40:10;;;;;;;0.90;0.90;;;;;;;;;;5100418;28;20680;-64
2021/12/08 00:42:59;;;;;;;0.80;0.80;;;;;;;;;;5113952;28;20259;-65
2021/12/08 00:45:47;;;;;;;0.70;0.70;;;;;;;;;;5114544;28;20206;-65
2021/12/08 00:48:36;;;;;;;0.97;0.97;;;;;;;;;;5113304;28;20201;-65
2021/12/08 00:51:23;;;;;;;1.17;1.13;;;;;;;;;;5113627;28;20750;-64
2021/12/08 00:54:10;;;;;;;0.90;0.90;;;;;;;;;;5113677;28;20201;-65
2021/12/08 00:56:58;;;;;;;1.23;1.13;;;;;;;;;;5112048;28;20225;-65
2021/12/08 00:59:45;;;;;;;0.70;0.70;;;;;;;;;;5113649;28;20669;-64
2021/12/08 01:02:32;;;;;;;1.30;1.30;;;;;;;;;;5108082;28;20763;-65
2021/12/08 01:05:24;;;;;;;1.23;1.23;;;;;;;;;;5113086;28;20226;-64
2021/12/08 01:08:12;;;;;;;1.00;1.00;;;;;;;;;;5112772;28;20729;-65
2021/12/08 01:11:06;;;;;;;1.00;1.00;;;;;;;;;;5099969;28;20714;-65
2021/12/08 01:13:53;;;;;;;1.00;1.00;;;;;;;;;;5092615;28;20248;-65
2021/12/08 01:16:40;;;;;;;0.90;0.90;;;;;;;;;;5091796;28;20285;-65
2021/12/08 01:19:27;;;;;;;1.00;1.00;;;;;;;;;;5091088;28;20234;-65
2021/12/08 01:22:16;;;;;;;1.10;1.10;;;;;;;;;;5092303;28;20715;-64
2021/12/08 01:25:03;;;;;;;1.00;1.00;;;;;;;;;;5091794;28;20283;-65
2021/12/08 01:27:50;;;;;;;0.80;0.80;;;;;;;;;;5092368;28;20202;-65
2021/12/08 01:30:38;;;;;;;1.00;1.00;;;;;;;;;;5092075;28;20194;-65
2021/12/08 01:33:25;;;;;;;0.90;0.90;;;;;;;;;;5092157;28;20206;-65
2021/12/08 01:36:12;;;;;;;0.80;0.80;;;;;;;;;;5092179;28;20279;-65
2021/12/08 01:39:00;;;;;;;1.13;1.13;;;;;;;;;;5091956;28;20299;-65
2021/12/08 01:41:48;;;;;;;2.60;1.20;;;;;;;;;;5091378;28;20624;-64
2021/12/08 01:47:39;;;;;;;0.90;0.90;;;;;;;;;;5091772;28;20680;-65
2021/12/08 01:50:27;;;;;;;1.10;1.10;;;;;;;;;;5090647;28;20301;-65
2021/12/08 01:53:14;;;;;;;1.20;1.20;;;;;;;;;;5102746;28;20274;-64
2021/12/08 01:56:02;;;;;;;1.00;1.00;;;;;;;;;;5105255;28;20211;-64
2021/12/08 01:58:50;;;;;;;1.20;1.20;;;;;;;;;;5099652;28;20713;-65
2021/12/08 02:01:39;;;;;;;0.83;0.83;;;;;;;;;;5109674;28;20595;-65
2021/12/08 02:04:26;;;;;;;1.10;1.10;;;;;;;;;;5103351;28;20254;-64
2021/12/08 02:07:13;;;;;;;0.97;0.90;;;;;;;;;;5110044;28;20210;-64
2021/12/08 02:10:00;;;;;;;1.10;1.10;;;;;;;;;;5106901;28;20193;-64
2021/12/08 02:12:49;;;;;;;0.90;0.90;;;;;;;;;;5107288;28;20251;-66
2021/12/08 02:15:37;;;;;;;1.13;1.13;;;;;;;;;;5100983;28;20199;-64
2021/12/08 02:18:24;;;;;;;0.93;0.93;;;;;;;;;;5109677;28;20292;-64
2021/12/08 02:21:24;;;;;;;0.97;0.97;;;;;;;;;;5107009;28;20837;-64
2021/12/08 02:24:14;;;;;;;0.90;0.90;;;;;;;;;;5111754;28;20194;-65
2021/12/08 02:27:01;;;;;;;1.40;1.30;;;;;;;;;;5105022;28;20266;-65
2021/12/08 02:29:55;;;;;;;0.90;0.90;;;;;;;;;;5108171;28;20190;-64
2021/12/08 02:48:08;;;;;;;1.03;1.03;;;;;;;;;;5089047;28;20590;-65
2021/12/08 02:50:56;;;;;;;1.30;1.30;;;;;;;;;;5090489;28;20918;-65
2021/12/08 02:53:43;;;;;;;1.27;1.17;;;;;;;;;;5094973;28;20282;-65
2021/12/08 02:56:32;;;;;;;1.00;1.00;;;;;;;;;;5106895;28;20672;-65
2021/12/08 02:59:19;;;;;;;1.00;1.00;;;;;;;;;;5108880;28;20208;-65
2021/12/08 03:02:06;;;;;;;1.20;1.20;;;;;;;;;;5106217;28;20319;-64
2021/12/08 03:04:53;;;;;;;1.10;1.10;;;;;;;;;;5102687;28;20226;-64
2021/12/08 03:07:41;;;;;;;1.20;1.20;;;;;;;;;;5092444;28;20236;-64
2021/12/08 03:10:31;;;;;;;1.00;1.00;;;;;;;;;;5103018;28;20220;-65
2021/12/08 03:13:20;;;;;;;1.20;1.20;;;;;;;;;;5107500;28;20306;-64
2021/12/08 03:16:09;;;;;;;0.97;0.97;;;;;;;;;;5108256;28;20296;-65
2021/12/08 03:18:56;;;;;;;1.07;1.07;;;;;;;;;;5099514;28;20268;-64
2021/12/08 03:21:43;;;;;;;1.07;1.07;;;;;;;;;;5105525;28;20264;-64
2021/12/08 03:24:33;;;;;;;1.20;1.20;;;;;;;;;;5109594;28;20537;-64
2021/12/08 03:27:26;;;;;;;1.00;1.00;;;;;;;;;;5101365;28;20566;-65
2021/12/08 03:30:19;;;;;;;1.27;1.27;;;;;;;;;;5097204;28;20303;-64
2021/12/08 03:33:06;;;;;;;1.37;1.27;;;;;;;;;;5108118;28;20667;-64
2021/12/08 03:35:53;;;;;;;1.20;1.20;;;;;;;;;;5106576;28;20208;-65
2021/12/08 03:38:44;;;;;;;1.30;1.20;;;;;;;;;;5108482;28;20251;-65
2021/12/08 03:41:33;;;;;;;1.30;1.30;;;;;;;;;;5106562;28;20242;-64
2021/12/08 03:44:20;;;;;;;1.70;1.60;;;;;;;;;;5098893;28;20201;-65
2021/12/08 03:47:14;;;;;;;1.30;1.30;;;;;;;;;;5109041;28;20661;-65
2021/12/08 03:50:03;;;;;;;1.20;1.20;;;;;;;;;;5108700;28;20201;-65
2021/12/08 03:52:50;;;;;;;1.13;1.13;;;;;;;;;;5108652;28;20315;-65
2021/12/08 03:55:36;;;;;;;1.53;1.43;;;;;;;;;;5090868;28;20735;-64
2021/12/08 03:58:25;;;;;;;1.10;1.10;;;;;;;;;;5088626;28;20377;-65
2021/12/08 04:01:12;;;;;;;0.93;0.93;;;;;;;;;;5088557;28;20351;-65
2021/12/08 04:04:05;;;;;;;1.00;1.00;;;;;;;;;;5099137;28;20655;-64
2021/12/08 04:06:53;;;;;;;1.20;1.20;;;;;;;;;;5108507;28;20724;-65
2021/12/08 04:09:42;;;;;;;1.20;1.10;;;;;;;;;;5091315;28;20298;-64
2021/12/08 04:12:29;;;;;;;1.40;1.30;;;;;;;;;;5109176;28;20209;-65
2021/12/08 04:15:18;;;;;;;1.03;1.03;;;;;;;;;;5108986;28;20285;-65
2021/12/08 04:18:06;;;;;;;1.20;1.10;;;;;;;;;;5109642;28;20695;-65
2021/12/08 04:20:58;;;;;;;1.17;1.13;;;;;;;;;;5109301;28;20255;-65
2021/12/08 04:23:46;;;;;;;1.33;1.23;;;;;;;;;;5101551;28;20209;-65
2021/12/08 04:26:37;;;;;;;1.17;1.17;;;;;;;;;;5109221;28;20282;-65
2021/12/08 04:29:26;;;;;;;1.00;1.00;;;;;;;;;;5110035;28;20256;-65
2021/12/08 04:32:15;;;;;;;1.47;1.37;;;;;;;;;;5109045;28;20281;-65
2021/12/08 04:35:07;;;;;;;0.87;0.87;;;;;;;;;;5110089;28;20287;-64
2021/12/08 04:38:03;;;;;;;1.40;1.30;;;;;;;;;;5109676;28;20213;-65
2021/12/08 04:41:01;;;;;;;1.13;1.13;;;;;;;;;;5108999;28;20213;-64
2021/12/08 04:43:56;;;;;;;0.83;0.83;;;;;;;;;;5108886;28;20209;-65
2021/12/08 04:46:59;;;;;;;1.10;1.10;;;;;;;;;;5109896;28;20198;-65
2021/12/08 04:50:19;;;;;;;0.90;0.90;;;;;;;;;;5109456;28;20559;-64
2021/12/08 04:53:26;;;;;;;1.10;1.10;;;;;;;;;;5111213;28;20205;-64
2021/12/08 05:02:39;;;;;;;0.80;0.80;;;;;;;;;;5097244;28;20230;-65
2021/12/08 05:05:48;;;;;;;0.90;0.90;;;;;;;;;;5101546;28;20228;-65
2021/12/08 05:08:41;;;;;;;1.03;0.90;;;;;;;;;;5112153;28;20622;-65
2021/12/08 05:11:34;;;;;;;1.20;1.20;;;;;;;;;;5111920;28;20240;-65
2021/12/08 05:14:27;;;;;;;0.90;0.90;;;;;;;;;;5112622;28;20206;-65
2021/12/08 05:17:21;;;;;;;1.10;1.10;;;;;;;;;;5111459;28;20198;-64
2021/12/08 05:20:13;;;;;;;1.27;1.20;;;;;;;;;;5112920;28;20318;-65
2021/12/08 05:23:07;;;;;;;1.10;1.10;;;;;;;;;;5111853;28;20218;-64
2021/12/08 05:25:56;;;;;;;1.17;1.17;;;;;;;;;;5112055;28;20224;-65
2021/12/08 05:28:47;;;;;;;0.90;0.90;;;;;;;;;;5111702;28;20612;-65
2021/12/08 05:31:35;;;;;;;1.03;1.03;;;;;;;;;;5111921;28;20194;-64
2021/12/08 05:34:22;;;;;;;1.10;1.10;;;;;;;;;;5111618;28;20206;-64
2021/12/08 05:37:11;;;;;;;1.50;1.40;;;;;;;;;;5112193;28;20308;-64
2021/12/08 05:39:58;;;;;;;1.03;1.03;;;;;;;;;;5112230;28;20279;-65
2021/12/08 05:42:47;;;;;;;1.20;1.20;;;;;;;;;;5111680;28;20712;-65
2021/12/08 05:45:36;;;;;;;1.20;1.20;;;;;;;;;;5091794;28;20720;-65
2021/12/08 05:48:23;;;;;;;1.10;1.10;;;;;;;;;;5092417;28;20208;-65
2021/12/08 05:51:12;;;;;;;1.10;1.10;;;;;;;;;;5100883;28;20209;-65
2021/12/08 05:54:04;;;;;;;1.00;1.00;;;;;;;;;;5111390;28;20260;-65
2021/12/08 05:56:55;;;;;;;1.10;1.10;;;;;;;;;;5111938;28;20210;-64
2021/12/08 05:59:44;;;;;;;1.23;1.20;;;;;;;;;;5111481;28;20677;-65
2021/12/08 06:02:33;;;;;;;1.10;1.10;;;;;;;;;;5109376;28;20226;-65
2021/12/08 06:05:20;;;;;;;1.47;1.40;;;;;;;;;;5098670;28;20226;-64
2021/12/08 06:08:07;;;;;;;1.23;1.23;;;;;;;;;;5091694;28;20206;-65
2021/12/08 06:10:55;;;;;;;1.10;1.10;;;;;;;;;;5105214;28;20616;-65
2021/12/08 06:13:45;;;;;;;1.07;1.07;;;;;;;;;;5111467;28;20323;-65
2021/12/08 06:16:37;;;;;;;1.27;1.27;;;;;;;;;;5110572;28;20230;-64
2021/12/08 06:19:24;;;;;;;1.57;1.47;;;;;;;;;;5112347;28;20249;-64
2021/12/08 06:22:18;;;;;;;1.30;1.30;;;;;;;;;;5091528;28;20285;-64
2021/12/08 06:25:06;;;;;;;1.30;1.20;;;;;;;;;;5091495;28;20248;-64
2021/12/08 06:27:53;;;;;;;1.37;1.30;;;;;;;;;;5090830;28;20284;-65
2021/12/08 06:30:45;;;;;;;1.40;1.30;;;;;;;;;;5090939;28;20218;-65
2021/12/08 06:33:33;;;;;;;1.30;1.30;;;;;;;;;;5091741;28;20195;-65
2021/12/08 06:36:25;;;;;;;0.97;0.97;;;;;;;;;;5090582;28;20201;-65
2021/12/08 06:39:16;;;;;;;1.20;1.20;;;;;;;;;;5088205;28;20254;-65
2021/12/08 06:42:13;;;;;;;1.60;1.50;;;;;;;;;;5070527;28;20255;-65
2021/12/08 06:45:01;;;;;;;1.43;1.37;;;;;;;;;;5087145;28;20676;-65
2021/12/08 06:47:50;;;;;;;1.23;1.23;;;;;;;;;;5090105;28;20206;-65
2021/12/08 06:50:42;;;;;;;1.10;1.10;;;;;;;;;;5074716;28;20309;-65
2021/12/08 06:53:31;;;;;;;1.30;1.30;;;;;;;;;;5071023;28;20296;-65
2021/12/08 06:56:22;;;;;;;1.47;1.40;;;;;;;;;;5070462;28;20235;-65
2021/12/08 06:59:18;;;;;;;1.67;1.57;;;;;;;;;;5081474;28;20206;-65
2021/12/08 07:02:13;;;;;;;1.57;1.47;;;;;;;;;;5082827;28;20297;-64
2021/12/08 07:05:11;;;;;;;1.83;1.73;;;;;;;;;;5082290;28;20224;-65
2021/12/08 07:08:04;;;;;;;2.03;1.93;;;;;;;;;;5089508;28;20293;-65
2021/12/08 07:10:56;;;;;;;2.30;2.10;;;;;;;;;;5089322;28;20294;-66
2021/12/08 07:13:43;;;;;;;2.37;2.27;;;;;;;;;;5084128;28;20217;-65
2021/12/08 07:16:33;;;;;;;2.40;2.30;;;;;;;;;;5086007;28;20259;-65
2021/12/08 07:19:28;;;;;;;2.73;2.53;;;;;;;;;;5074147;28;20212;-65
2021/12/08 07:22:20;;;;;;;2.87;2.77;;;;;;;;;;5077931;28;20757;-65
2021/12/08 07:25:12;;;;;;;2.93;2.73;;;;;;;;;;5069995;28;20207;-65
2021/12/08 07:27:59;;;;;;;3.30;3.10;;;;;;;;;;5064316;28;20203;-64
2021/12/08 07:30:49;;;;;;;3.20;3.00;;;;;;;;;;5083373;28;20772;-65
2021/12/08 07:33:36;;;;;;;3.30;3.10;;;;;;;;;;5089104;28;20230;-65
2021/12/08 07:36:24;;;;;;;3.10;2.90;;;;;;;;;;5090638;28;20280;-65
2021/12/08 07:39:16;;;;;;;3.40;3.20;;;;;;;;;;5089686;28;20198;-65
2021/12/08 07:42:09;;;;;;;3.20;3.00;;;;;;;;;;5076526;28;20721;-65
2021/12/08 07:44:59;;;;;;;3.30;3.10;;;;;;;;;;5090109;28;20218;-64
2021/12/08 07:47:49;;;;;;;3.50;3.30;;;;;;;;;;5089215;28;20237;-65
2021/12/08 07:50:40;;;;;;;3.30;3.10;;;;;;;;;;5069674;28;20672;-65
2021/12/08 07:53:29;;;;;;;3.50;3.30;;;;;;;;;;5080956;28;20727;-65
2021/12/08 07:56:19;;;;;;;3.10;2.90;;;;;;;;;;5090150;28;20206;-65
2021/12/08 07:59:10;;;;;;;3.50;3.30;;;;;;;;;;5088736;28;20297;-65
2021/12/08 08:02:06;;;;;;;3.57;3.37;;;;;;;;;;5080480;28;20198;-65
2021/12/08 08:04:55;;;;;;;3.13;3.03;;;;;;;;;;5084489;28;20226;-65
2021/12/08 08:07:43;;;;;;;3.83;3.60;;;;;;;;;;5090423;28;20279;-65
2021/12/08 08:10:31;;;;;;;3.50;3.30;;;;;;;;;;5088557;28;20227;-65
2021/12/08 08:13:21;;;;;;;3.50;3.30;;;;;;;;;;5089328;28;20214;-64
2021/12/08 08:16:11;;;;;;;3.30;3.10;;;;;;;;;;5088389;28;20277;-65
2021/12/08 08:19:06;;;;;;;3.87;3.57;;;;;;;;;;5088947;28;20213;-65
2021/12/08 08:21:54;;;;;;;3.30;3.10;;;;;;;;;;5080949;28;20848;-64
2021/12/08 08:24:41;;;;;;;3.10;2.90;;;;;;;;;;5085455;28;20290;-65
2021/12/08 08:27:28;;;;;;;3.10;2.90;;;;;;;;;;5085485;28;20234;-65
2021/12/08 08:30:20;;;;;;;3.40;3.20;;;;;;;;;;5084242;28;20291;-65
2021/12/08 08:33:10;;;;;;;3.40;3.20;;;;;;;;;;5091252;28;20229;-65
2021/12/08 08:36:03;;;;;;;3.30;3.10;;;;;;;;;;5091211;28;20210;-65
2021/12/08 08:38:55;;;;;;;3.17;2.97;;;;;;;;;;5079459;28;20203;-65
2021/12/08 08:41:46;;;;;;;3.27;3.07;;;;;;;;;;5065179;28;20539;-65
2021/12/08 08:44:38;;;;;;;3.20;3.00;;;;;;;;;;5077171;28;20244;-64
2021/12/08 08:47:29;;;;;;;3.40;3.10;;;;;;;;;;5083466;28;20203;-65
2021/12/08 08:50:23;;;;;;;2.90;2.70;;;;;;;;;;5085092;28;20261;-65
2021/12/08 08:53:10;;;;;;;3.33;3.13;;;;;;;;;;5080711;28;20312;-65
2021/12/08 08:56:05;;;;;;;3.27;3.07;;;;;;;;;;5076891;28;20244;-65
2021/12/08 08:58:56;;;;;;;3.60;3.30;;;;;;;;;;5075963;28;20206;-64
2021/12/08 09:01:48;;;;;;;3.57;3.37;;;;;;;;;;5087418;28;20804;-65
2021/12/08 09:04:38;;;;;;;3.53;3.33;;;;;;;;;;5086064;28;20229;-65
2021/12/08 09:07:29;;;;;;;3.70;3.50;;;;;;;;;;5084938;28;20351;-65
2021/12/08 09:10:21;;;;;;;3.70;3.50;;;;;;;;;;5088833;28;20737;-65
2021/12/08 09:13:12;;;;;;;4.00;3.80;;;;;;;;;;5086833;28;20673;-65
2021/12/08 09:16:04;;;;;;;3.80;3.60;;;;;;;;;;5085601;28;20665;-66
2021/12/08 09:19:00;;;;;;;3.60;3.40;;;;;;;;;;5085884;28;20206;-65
2021/12/08 09:21:57;;;;;;;4.07;3.77;;;;;;;;;;5107062;28;20402;-65
2021/12/08 09:24:49;;;;;;;3.70;3.50;;;;;;;;;;5092341;28;20217;-65
2021/12/08 09:27:39;;;;;;;3.83;3.53;;;;;;;;;;5107492;28;20206;-65
2021/12/08 09:30:32;;;;;;;3.70;3.50;;;;;;;;;;5098043;28;20681;-65
2021/12/08 09:33:25;;;;;;;3.57;3.37;;;;;;;;;;5096855;28;20190;-65
2021/12/08 09:36:16;;;;;;;3.60;3.40;;;;;;;;;;5108990;28;20205;-64
2021/12/08 09:39:08;;;;;;;4.13;3.83;;;;;;;;;;5095966;27;20682;-65
2021/12/08 09:42:00;;;;;;;4.30;4.00;;;;;;;;;;5091515;28;20207;-65
2021/12/08 09:44:50;;;;;;;4.30;4.10;;;;;;;;;;5106723;28;20365;-65
2021/12/08 09:47:37;;;;;;;4.57;4.20;;;;;;;;;;5111165;28;20274;-65
2021/12/08 09:50:24;;;;;;;4.33;4.03;;;;;;;;;;5111119;28;20229;-65
2021/12/08 09:53:11;;;;;;;4.53;4.23;;;;;;;;;;5111161;28;20709;-65
2021/12/08 09:55:58;;;;;;;4.83;4.43;;;;;;;;;;5112410;28;20205;-65
2021/12/08 09:58:47;;;;;;;4.63;4.33;;;;;;;;;;5110756;28;20202;-65
2021/12/08 10:01:37;;;;;;;4.80;4.50;;;;;;;;;;5112647;28;20693;-65
2021/12/08 10:04:24;;;;;;;4.93;4.63;;;;;;;;;;5109223;28;20236;-65
2021/12/08 10:07:12;;;;;;;4.97;4.67;;;;;;;;;;5111653;28;20205;-65
2021/12/08 10:09:59;;;;;;;5.10;4.80;;;;;;;;;;5111894;28;20206;-65
2021/12/08 10:12:46;;;;;;;5.33;4.93;;;;;;;;;;5112311;28;20237;-65
2021/12/08 10:15:35;;;;;;;5.03;4.73;;;;;;;;;;5111986;28;20346;-65
2021/12/08 10:18:22;;;;;;;4.80;4.50;;;;;;;;;;5112128;28;20201;-65
2021/12/08 10:21:10;;;;;;;4.80;4.50;;;;;;;;;;5110671;28;20240;-65
2021/12/08 10:23:57;;;;;;;5.20;4.87;;;;;;;;;;5110955;28;20316;-65
2021/12/08 10:26:45;;;;;;;4.87;4.47;;;;;;;;;;5110756;28;20231;-65
2021/12/08 10:29:32;;;;;;;4.83;4.53;;;;;;;;;;5111350;28;20242;-65
2021/12/08 10:32:21;;;;;;;4.70;4.40;;;;;;;;;;5109701;28;20201;-65
2021/12/08 10:35:28;;;;;;;4.70;4.40;;;;;;;;;;5110650;28;20193;-65
2021/12/08 10:38:16;;;;;;;5.07;4.67;;;;;;;;;;5110644;28;20236;-65
2021/12/08 10:41:06;;;;;;;4.80;4.50;;;;;;;;;;5110306;28;20212;-66
2021/12/08 10:44:01;;;;;;;4.57;4.27;;;;;;;;;;5110634;28;20358;-64
2021/12/08 10:46:51;;;;;;;4.60;4.30;;;;;;;;;;5109867;28;20243;-64
2021/12/08 10:55:59;;;;;;;4.07;3.87;;;;;;;;;;5091060;28;20194;-64
2021/12/08 10:58:50;;;;;;;4.70;4.30;;;;;;;;;;5090303;28;20553;-64
2021/12/08 11:01:37;;;;;;;4.63;4.33;;;;;;;;;;5090709;28;20206;-64
2021/12/08 11:04:31;;;;;;;3.87;3.67;;;;;;;;;;5108350;28;20309;-64
2021/12/08 11:07:19;;;;;;;4.30;4.00;;;;;;;;;;5111124;28;20205;-64
2021/12/08 11:10:18;;;;;;;4.23;3.93;;;;;;;;;;5111292;28;20282;-64
2021/12/08 11:13:07;;;;;;;3.70;3.50;;;;;;;;;;5110299;28;20239;-65
2021/12/08 11:16:05;;;;;;;4.20;3.93;;;;;;;;;;5111279;28;20259;-64
2021/12/08 11:19:00;;;;;;;4.30;4.00;;;;;;;;;;5110505;28;20197;-65
2021/12/08 11:21:49;;;;;;;4.20;3.70;;;;;;;;;;5110863;28;20781;-64
2021/12/08 11:24:46;;;;;;;3.83;3.60;;;;;;;;;;5110925;28;20274;-64
2021/12/08 11:27:34;;;;;;;3.93;3.63;;;;;;;;;;5109883;28;20245;-64
2021/12/08 11:30:25;;;;;;;3.87;3.67;;;;;;;;;;5109066;28;20194;-65
2021/12/08 11:33:15;;;;;;;3.70;3.50;;;;;;;;;;5110222;28;20194;-64
2021/12/08 11:36:17;;;;;;;3.70;3.50;;;;;;;;;;5110708;28;20194;-64
2021/12/08 11:39:13;;;;;;;3.73;3.53;;;;;;;;;;5111176;28;20288;-64
2021/12/08 11:42:06;;;;;;;3.80;3.57;;;;;;;;;;5110755;28;20331;-64
2021/12/08 11:44:56;;;;;;;3.90;3.60;;;;;;;;;;5109737;28;20688;-64
2021/12/08 11:47:44;;;;;;;3.63;3.40;;;;;;;;;;5110367;28;20683;-65
2021/12/08 11:50:32;;;;;;;3.40;3.20;;;;;;;;;;5110053;28;20206;-65
2021/12/08 11:53:22;;;;;;;3.77;3.47;;;;;;;;;;5110573;28;20242;-64
2021/12/08 11:56:31;;;;;;;3.40;3.20;;;;;;;;;;5110592;28;20214;-65
2021/12/08 11:59:19;;;;;;;3.60;3.40;;;;;;;;;;5110446;28;20285;-64
2021/12/08 12:02:06;;;;;;;3.50;3.20;;;;;;;;;;5109345;28;20208;-64
2021/12/08 12:04:54;;;;;;;3.87;3.67;;;;;;;;;;5104266;28;20225;-64
2021/12/08 12:07:41;;;;;;;3.70;3.50;;;;;;;;;;5113613;28;20696;-64
2021/12/08 12:10:31;;;;;;;3.50;3.30;;;;;;;;;;5114024;28;20205;-64
2021/12/08 12:13:19;;;;;;;3.77;3.50;;;;;;;;;;5113263;28;20198;-64
2021/12/08 12:16:07;;;;;;;3.40;3.20;;;;;;;;;;5113361;28;20688;-65
2021/12/08 12:18:58;;;;;;;3.80;3.60;;;;;;;;;;5113795;28;20238;-64
2021/12/08 12:21:58;;;;;;;3.73;3.40;;;;;;;;;;5114225;28;20266;-66
2021/12/08 12:25:01;;;;;;;3.53;3.33;;;;;;;;;;5112857;28;20218;-64
2021/12/08 12:28:00;;;;;;;3.43;3.23;;;;;;;;;;5113786;28;20202;-64
2021/12/08 12:30:58;;;;;;;3.37;3.17;;;;;;;;;;5093173;28;20285;-65
2021/12/08 12:33:50;;;;;;;3.80;3.60;;;;;;;;;;5085982;28;20277;-64
2021/12/08 12:36:37;;;;;;;3.80;3.60;;;;;;;;;;5093754;28;20210;-65
2021/12/08 12:39:26;;;;;;;3.40;3.20;;;;;;;;;;5093862;28;20297;-65
2021/12/08 12:42:15;;;;;;;3.83;3.53;;;;;;;;;;5113387;28;20248;-64
2021/12/08 12:45:11;;;;;;;3.60;3.40;;;;;;;;;;5112286;28;20222;-65
2021/12/08 12:48:10;;;;;;;3.70;3.50;;;;;;;;;;5113128;28;20230;-64
2021/12/08 12:51:02;;;;;;;3.67;3.37;;;;;;;;;;5113729;28;20204;-64
2021/12/08 12:53:53;;;;;;;3.80;3.57;;;;;;;;;;5113781;28;20305;-64
2021/12/08 12:56:52;;;;;;;4.13;3.83;;;;;;;;;;5113283;28;20216;-64
2021/12/08 12:59:41;;;;;;;4.07;3.80;;;;;;;;;;5112887;28;20672;-64
2021/12/08 13:02:32;;;;;;;3.57;3.37;;;;;;;;;;5111960;28;20742;-64
2021/12/08 13:05:19;;;;;;;3.63;3.43;;;;;;;;;;5110321;28;20241;-64
2021/12/08 13:08:08;;;;;;;3.70;3.50;;;;;;;;;;5111641;28;20713;-65
2021/12/08 13:10:55;;;;;;;4.00;3.80;;;;;;;;;;5112476;28;20237;-64
2021/12/08 13:13:47;;;;;;;3.77;3.50;;;;;;;;;;5113882;28;20201;-65
2021/12/08 13:16:35;;;;;;;3.83;3.63;;;;;;;;;;5111849;28;20326;-64
2021/12/08 13:19:38;;;;;;;4.40;4.10;;;;;;;;;;5112619;28;20661;-65
2021/12/08 13:22:48;;;;;;;4.33;4.00;;;;;;;;;;5092332;28;20324;-64
2021/12/08 13:25:58;;;;;;;3.50;3.30;;;;;;;;;;5092709;28;20267;-65
2021/12/08 13:28:50;;;;;;;4.23;3.93;;;;;;;;;;5091953;28;20678;-65
2021/12/08 13:31:59;;;;;;;4.13;3.83;;;;;;;;;;5092388;28;20582;-64
2021/12/08 13:34:57;;;;;;;3.90;3.70;;;;;;;;;;5092228;28;20210;-64
2021/12/08 13:37:57;;;;;;;3.90;3.60;;;;;;;;;;5092475;28;20577;-64
2021/12/08 13:40:47;;;;;;;4.07;3.77;;;;;;;;;;5092470;28;20311;-64
2021/12/08 13:43:40;;;;;;;4.60;4.30;;;;;;;;;;5091778;28;20202;-64
2021/12/08 13:46:41;;;;;;;4.67;4.27;;;;;;;;;;5091374;28;20678;-64
2021/12/08 13:49:34;;;;;;;4.20;3.90;;;;;;;;;;5091892;28;20291;-64
2021/12/08 13:52:26;;;;;;;4.37;4.00;;;;;;;;;;5091040;28;20202;-64
2021/12/08 13:55:19;;;;;;;4.27;4.00;;;;;;;;;;5091411;28;20236;-64
2021/12/08 13:58:12;;;;;;;4.17;3.87;;;;;;;;;;5092720;28;20686;-64
2021/12/08 14:01:02;;;;;;;4.20;3.80;;;;;;;;;;5091181;28;20248;-65
2021/12/08 14:03:50;;;;;;;4.00;3.80;;;;;;;;;;5085500;28;20266;-65
2021/12/08 14:06:37;;;;;;;4.53;4.23;;;;;;;;;;5090650;28;20210;-64
2021/12/08 14:09:24;;;;;;;4.67;4.27;;;;;;;;;;5090190;28;20268;-65
2021/12/08 14:12:11;;;;;;;4.43;4.13;;;;;;;;;;5091933;28;20251;-64
2021/12/08 14:14:59;;;;;;;4.43;4.10;;;;;;;;;;5091983;28;20763;-65
2021/12/08 14:17:49;;;;;;;5.00;4.60;;;;;;;;;;5090588;28;20226;-64
2021/12/08 14:20:36;;;;;;;4.70;4.40;;;;;;;;;;5091874;28;20740;-66
2021/12/08 14:23:26;;;;;;;4.57;4.27;;;;;;;;;;5090818;28;20734;-64
2021/12/08 14:26:14;;;;;;;4.83;4.53;;;;;;;;;;5090986;28;20195;-65
2021/12/08 14:29:02;;;;;;;5.27;4.90;;;;;;;;;;5091072;28;20279;-65
2021/12/08 14:31:51;;;;;;;4.83;4.53;;;;;;;;;;5090841;28;20230;-64
2021/12/08 14:34:40;;;;;;;5.00;4.70;;;;;;;;;;5090252;28;20198;-64
2021/12/08 14:37:27;;;;;;;4.93;4.53;;;;;;;;;;5091579;28;20198;-64
2021/12/08 14:40:18;;;;;;;4.60;4.30;;;;;;;;;;5091385;28;20202;-64
2021/12/08 14:43:05;;;;;;;4.57;4.27;;;;;;;;;;5090666;28;20581;-65
2021/12/08 14:45:52;;;;;;;5.00;4.67;;;;;;;;;;5090587;28;20222;-64
2021/12/08 14:48:45;;;;;;;5.10;4.70;;;;;;;;;;5090671;28;20209;-64
2021/12/08 14:51:36;;;;;;;4.70;4.40;;;;;;;;;;5091170;28;20650;-64
2021/12/08 14:54:25;;;;;;;4.93;4.60;;;;;;;;;;5090590;28;20580;-65
2021/12/08 14:57:15;;;;;;;4.97;4.57;;;;;;;;;;5090253;28;20282;-64
2021/12/08 15:00:07;;;;;;;4.83;4.50;;;;;;;;;;5073849;28;20207;-64
2021/12/08 15:03:03;;;;;;;4.97;4.63;;;;;;;;;;5073893;28;20294;-64
2021/12/08 15:05:52;;;;;;;4.93;4.60;;;;;;;;;;5090084;28;20275;-64
2021/12/08 15:08:41;;;;;;;5.07;4.67;;;;;;;;;;5091119;28;20634;-65
2021/12/08 15:11:30;;;;;;;5.20;4.77;;;;;;;;;;5090264;28;20215;-64
2021/12/08 15:14:17;;;;;;;5.00;4.60;;;;;;;;;;5090122;28;20199;-64
2021/12/08 15:17:04;;;;;;;5.17;4.77;;;;;;;;;;5083003;28;20325;-64
2021/12/08 15:19:53;;;;;;;5.30;4.90;;;;;;;;;;5072904;28;20242;-65
2021/12/08 15:22:42;;;;;;;4.77;4.47;;;;;;;;;;5089106;28;20255;-64
2021/12/08 15:25:31;;;;;;;5.10;4.80;;;;;;;;;;5097458;28;20312;-64
2021/12/08 15:28:23;;;;;;;4.73;4.43;;;;;;;;;;5098141;28;20234;-65
2021/12/08 15:31:12;;;;;;;5.60;5.20;;;;;;;;;;5093551;28;20314;-64
2021/12/08 15:34:00;;;;;;;4.70;4.40;;;;;;;;;;5108016;28;20677;-64
2021/12/08 15:36:55;;;;;;;5.10;4.70;;;;;;;;;;5104264;28;20210;-64
2021/12/08 15:39:44;;;;;;;5.27;4.87;;;;;;;;;;5098981;28;20207;-64
2021/12/08 15:42:34;;;;;;;5.70;5.20;;;;;;;;;;5103974;28;20207;-65
2021/12/08 15:45:21;;;;;;;5.30;4.90;;;;;;;;;;5088737;28;20355;-65
2021/12/08 15:48:10;;;;;;;5.13;4.73;;;;;;;;;;5095360;27;20677;-65
2021/12/08 15:50:59;;;;;;;5.50;5.07;;;;;;;;;;5109605;28;20277;-64
2021/12/08 15:53:48;;;;;;;5.57;5.17;;;;;;;;;;5102009;28;20583;-64
2021/12/08 15:56:38;;;;;;;5.60;5.20;;;;;;;;;;5103472;28;20249;-64
2021/12/08 15:59:28;;;;;;;5.63;5.23;;;;;;;;;;5090078;28;20691;-64
2021/12/08 16:02:17;;;;;;;6.13;5.67;;;;;;;;;;5091438;28;20233;-65
2021/12/08 16:05:09;;;;;;;6.03;5.63;;;;;;;;;;5104334;28;20230;-64
2021/12/08 16:07:59;;;;;;;6.80;6.20;;;;;;;;;;5108955;28;20213;-64
2021/12/08 16:10:46;;;;;;;6.07;5.57;;;;;;;;;;5107216;28;20230;-64
2021/12/08 16:13:33;;;;;;;6.13;5.63;;;;;;;;;;5103720;28;20611;-64
2021/12/08 16:16:31;;;;;;;6.77;6.27;;;;;;;;;;5106056;28;20220;-64
2021/12/08 16:19:20;;;;;;;7.00;6.40;;;;;;;;;;5088626;28;20199;-64
2021/12/08 16:22:07;;;;;;;6.60;6.00;;;;;;;;;;5089134;28;20659;-64
2021/12/08 16:24:55;;;;;;;6.47;5.97;;;;;;;;;;5096070;28;20214;-64
2021/12/08 16:27:42;;;;;;;6.37;5.90;;;;;;;;;;5107000;28;20208;-64
2021/12/08 16:30:29;;;;;;;6.57;6.07;;;;;;;;;;5103920;28;20334;-65
2021/12/08 16:33:17;;;;;;;6.20;5.70;;;;;;;;;;5088391;28;20699;-64
2021/12/08 16:36:04;;;;;;;6.03;5.57;;;;;;;;;;5089018;28;20217;-64
2021/12/08 16:38:51;;;;;;;6.33;5.83;;;;;;;;;;5096641;28;20297;-65
2021/12/08 16:44:43;;;;;;;6.57;6.03;;;;;;;;;;5107450;28;20746;-64
2021/12/08 16:47:31;;;;;;;6.27;5.77;;;;;;;;;;5108195;28;20315;-65
2021/12/08 16:50:22;;;;;;;6.30;5.80;;;;;;;;;;5099377;28;20255;-65
2021/12/08 16:53:11;;;;;;;6.13;5.73;;;;;;;;;;5108372;28;20214;-64
2021/12/08 16:56:01;;;;;;;6.37;5.77;;;;;;;;;;5092638;28;20300;-64
2021/12/08 16:58:49;;;;;;;5.97;5.53;;;;;;;;;;5090233;28;20203;-64
2021/12/08 17:01:37;;;;;;;6.50;5.90;;;;;;;;;;5094239;28;20578;-64
2021/12/08 17:04:26;;;;;;;6.00;5.60;;;;;;;;;;5111227;28;20258;-64
2021/12/08 17:07:14;;;;;;;6.30;5.80;;;;;;;;;;5106654;28;20343;-64
2021/12/08 17:10:01;;;;;;;5.93;5.53;;;;;;;;;;5110835;28;20281;-65
2021/12/08 17:12:48;;;;;;;6.80;6.20;;;;;;;;;;5103972;28;20701;-64
2021/12/08 17:15:37;;;;;;;6.23;5.73;;;;;;;;;;5095160;28;20268;-64
2021/12/08 17:18:24;;;;;;;6.13;5.73;;;;;;;;;;5092268;27;20690;-64
2021/12/08 17:21:11;;;;;;;5.93;5.53;;;;;;;;;;5092489;28;20299;-64
2021/12/08 17:24:00;;;;;;;6.27;5.77;;;;;;;;;;5092240;28;20654;-64
2021/12/08 17:26:47;;;;;;;6.00;5.50;;;;;;;;;;5091652;28;20266;-65
2021/12/08 17:29:34;;;;;;;6.17;5.67;;;;;;;;;;5080555;28;20614;-64
2021/12/08 17:32:21;;;;;;;5.90;5.50;;;;;;;;;;5087376;28;20209;-64
2021/12/08 17:35:10;;;;;;;6.43;5.93;;;;;;;;;;5090232;28;20203;-64
2021/12/08 17:37:56;;;;;;;6.17;5.67;;;;;;;;;;5090863;28;20804;-64